Time;durP1;ratioP1;P1;durP2;ratioP2;P2;SDS_P1;SDS_P2;PMS_P1;PMS_P2;Temp;Humidity;BMP_temperature;BMP_pressure;BME280_temperature;BME280_humidity;BME280_pressure;Samples;Min_cycle;Max_cycle;Signal;HPM_P1;HPM_P2
2022/05/05 00:02:31;;;;;;;7.80;2.80;;;11.30;99.90;;;11.42;68.26;101274.97;5143514;28;20476;-69
2022/05/05 00:05:03;;;;;;;6.57;2.90;;;11.30;99.90;;;11.43;67.83;101270.66;5143669;28;20050;-70
2022/05/05 00:07:35;;;;;;;4.45;2.80;;;11.30;99.90;;;11.47;67.41;101265.59;5143395;28;20155;-70
2022/05/05 00:15:46;;;;;;;7.65;2.80;;;11.30;99.90;;;11.48;66.93;101274.34;5143215;28;20109;-70
2022/05/05 00:18:18;;;;;;;5.90;3.47;;;11.30;99.90;;;11.50;66.68;101276.16;5143562;28;20408;-70
2022/05/05 00:20:50;;;;;;;7.60;3.38;;;11.40;99.90;;;11.48;66.67;101275.22;5142195;28;20053;-70
2022/05/05 00:23:22;;;;;;;9.30;3.33;;;11.40;99.90;;;11.43;67.15;101281.97;5142104;28;20058;-69
2022/05/05 00:25:54;;;;;;;6.00;2.80;;;11.30;99.90;;;11.36;67.24;101274.75;5140074;28;20543;-70
2022/05/05 00:28:28;;;;;;;6.15;3.28;;;11.30;99.90;;;11.29;68.26;101275.34;5136421;28;20046;-71
2022/05/05 00:31:00;;;;;;;6.00;2.90;;;11.20;99.90;;;11.23;68.56;101277.69;5146824;28;20102;-71
2022/05/05 00:33:32;;;;;;;8.07;3.45;;;11.20;99.90;;;11.21;69.16;101274.13;5144844;28;20415;-69
2022/05/05 00:36:05;;;;;;;5.68;2.90;;;11.10;99.90;;;11.20;69.07;101280.16;5146259;28;20487;-70
2022/05/05 00:38:37;;;;;;;6.35;3.30;;;11.10;99.90;;;11.22;68.37;101273.31;5134670;28;20057;-69
2022/05/05 00:41:09;;;;;;;9.98;3.38;;;11.10;99.90;;;11.22;68.25;101273.31;5127632;28;20047;-70
2022/05/05 00:43:43;;;;;;;6.47;2.88;;;11.10;99.90;;;11.22;68.20;101275.94;5126954;28;20053;-70
2022/05/05 00:46:15;;;;;;;6.78;3.35;;;11.10;99.90;;;11.19;68.11;101270.56;5127006;28;20528;-70
2022/05/05 00:48:47;;;;;;;6.80;2.80;;;11.10;99.90;;;11.16;67.93;101266.13;5126684;28;20344;-69
2022/05/05 00:51:19;;;;;;;6.90;3.10;;;11.10;99.90;;;11.14;68.05;101273.88;5129924;28;20059;-70
2022/05/05 00:53:52;;;;;;;8.32;3.47;;;11.00;99.90;;;11.12;68.10;101272.94;5126798;28;20116;-70
2022/05/05 00:56:25;;;;;;;6.85;3.25;;;11.00;99.90;;;11.11;68.45;101275.47;5126707;28;20079;-69
2022/05/05 00:58:59;;;;;;;7.05;3.20;;;11.00;99.90;;;11.07;68.51;101270.97;5126852;28;20174;-70
2022/05/05 01:01:32;;;;;;;9.00;3.80;;;11.00;99.90;;;11.05;68.32;101270.91;5129038;28;20053;-70
2022/05/05 01:04:07;;;;;;;9.27;3.20;;;11.00;99.90;;;11.08;68.32;101278.88;5145267;28;20050;-69
2022/05/05 01:06:39;;;;;;;9.40;3.47;;;11.00;99.90;;;11.11;68.43;101273.75;5137942;28;20503;-70
2022/05/05 01:09:11;;;;;;;8.68;3.97;;;11.00;99.90;;;11.12;68.92;101274.66;5126846;28;20051;-70
2022/05/05 01:11:43;;;;;;;6.72;3.00;;;11.00;99.90;;;11.16;68.95;101278.28;5143021;28;20526;-69
2022/05/05 01:14:17;;;;;;;10.15;3.75;;;11.00;99.90;;;11.16;68.93;101270.47;5152353;28;20054;-70
2022/05/05 01:16:49;;;;;;;10.70;3.97;;;11.00;99.90;;;11.17;68.91;101274.84;5152498;28;20318;-69
2022/05/05 01:19:21;;;;;;;6.97;3.20;;;11.00;99.90;;;11.14;69.20;101268.66;5146740;28;20065;-69
2022/05/05 01:21:55;;;;;;;11.73;3.70;;;11.00;99.90;;;11.13;69.37;101285.13;5145857;28;20061;-70
2022/05/05 01:30:05;;;;;;;8.90;3.83;;;11.00;99.90;;;11.07;69.48;101286.63;5145924;28;20441;-70
2022/05/05 01:32:37;;;;;;;7.50;3.60;;;11.00;99.90;;;11.05;69.32;101283.94;5145494;28;20057;-69
2022/05/05 01:35:09;;;;;;;8.40;3.55;;;10.90;99.90;;;11.01;69.54;101282.03;5145715;28;20093;-69
2022/05/05 01:37:45;;;;;;;7.65;3.20;;;10.90;99.90;;;11.02;69.69;101288.13;5145984;28;20061;-70
2022/05/05 01:40:17;;;;;;;8.18;3.53;;;10.90;99.90;;;11.01;69.69;101292.47;5146999;28;20554;-70
2022/05/05 01:42:49;;;;;;;7.75;3.58;;;10.90;99.90;;;11.00;70.05;101295.91;5165686;28;20050;-69
2022/05/05 01:45:21;;;;;;;7.07;3.10;;;10.90;99.90;;;10.98;70.17;101294.06;5166300;28;20498;-70
2022/05/05 01:47:53;;;;;;;5.72;3.03;;;10.90;99.90;;;10.94;70.40;101305.19;5165756;28;20058;-69
2022/05/05 01:50:26;;;;;;;9.63;3.88;;;10.90;99.90;;;10.88;70.86;101301.50;5165617;28;20046;-70
2022/05/05 01:53:01;;;;;;;8.55;3.50;;;10.80;99.90;;;10.83;71.34;101304.78;5165651;28;20054;-69
2022/05/05 01:55:34;;;;;;;7.13;3.30;;;10.80;99.90;;;10.80;71.38;101307.25;5166008;28;20053;-69
2022/05/05 01:58:07;;;;;;;8.85;3.15;;;10.70;99.90;;;10.78;71.06;101303.69;5165598;28;20065;-69
2022/05/05 02:00:39;;;;;;;9.93;3.63;;;10.70;99.90;;;10.79;71.10;101310.69;5165654;28;20052;-69
2022/05/05 02:03:13;;;;;;;10.38;3.40;;;10.70;99.90;;;10.79;71.05;101310.69;5165361;28;20160;-69
2022/05/05 02:05:48;;;;;;;5.72;3.15;;;10.70;99.90;;;10.76;71.41;101314.06;5165409;28;20050;-70
2022/05/05 02:08:21;;;;;;;7.28;4.30;;;10.70;99.90;;;10.74;71.80;101313.09;5165593;28;20292;-70
2022/05/05 02:10:53;;;;;;;7.00;3.22;;;10.70;99.90;;;10.75;71.91;101313.97;5143656;28;20050;-70
2022/05/05 02:13:25;;;;;;;4.40;2.92;;;10.60;99.90;;;10.74;72.33;101322.63;5145235;28;20046;-70
2022/05/05 02:15:57;;;;;;;7.65;3.45;;;10.60;99.90;;;10.73;72.58;101311.31;5145304;28;20057;-69
2022/05/05 02:18:29;;;;;;;5.80;3.20;;;10.70;99.90;;;10.72;72.70;101311.25;5145125;28;20050;-69
2022/05/05 02:21:01;;;;;;;10.02;3.42;;;10.60;99.90;;;10.70;72.80;101315.50;5145387;28;20051;-69
2022/05/05 02:23:34;;;;;;;6.07;3.00;;;10.60;99.90;;;10.69;73.03;101314.59;5145010;28;20381;-70
2022/05/05 02:26:06;;;;;;;8.80;2.75;;;10.60;99.90;;;10.69;72.90;101309.38;5145102;28;20407;-69
2022/05/05 02:28:38;;;;;;;7.68;3.03;;;10.60;99.90;;;10.67;72.96;101321.47;5145040;28;20051;-69
2022/05/05 02:31:10;;;;;;;9.40;3.50;;;10.60;99.90;;;10.66;73.00;101324.03;5145188;28;20046;-69
2022/05/05 02:33:42;;;;;;;7.13;3.40;;;10.60;99.90;;;10.64;72.99;101325.69;5144383;28;20053;-69
2022/05/05 02:39:05;;;;;;;11.18;3.28;;;10.50;99.90;;;10.57;73.26;101315.00;5144962;28;20058;-69
2022/05/05 02:41:37;;;;;;;6.30;3.13;;;10.50;99.90;;;10.57;73.51;101324.53;5144650;28;20047;-70
2022/05/05 02:44:09;;;;;;;7.90;3.58;;;10.50;99.90;;;10.56;73.71;101323.63;5145052;28;20286;-69
2022/05/05 02:46:42;;;;;;;8.18;3.35;;;10.50;99.90;;;10.53;73.85;101323.50;5144949;28;20057;-70
2022/05/05 02:49:14;;;;;;;7.72;3.10;;;10.40;99.90;;;10.56;74.16;101330.53;5144552;28;20051;-69
2022/05/05 02:51:46;;;;;;;8.95;3.15;;;10.50;99.90;;;10.57;74.41;101330.63;5143895;28;20075;-70
2022/05/05 02:57:09;;;;;;;8.00;3.40;;;10.50;99.90;;;10.60;74.39;101325.53;5144542;28;20061;-69
2022/05/05 02:59:41;;;;;;;10.45;3.70;;;10.50;99.90;;;10.64;74.24;101330.91;5144707;28;20404;-70
2022/05/05 03:02:13;;;;;;;7.95;4.00;;;10.50;99.90;;;10.70;73.99;101325.94;5144372;28;20057;-70
2022/05/05 03:04:45;;;;;;;7.82;3.42;;;10.50;99.90;;;10.71;73.62;101330.34;5144874;28;20436;-71
2022/05/05 03:07:17;;;;;;;5.82;3.50;;;10.60;99.90;;;10.72;73.62;101325.19;5144349;28;20063;-69
2022/05/05 03:09:50;;;;;;;7.05;3.60;;;10.60;99.90;;;10.76;73.42;101326.22;5144681;28;20477;-70
2022/05/05 03:12:22;;;;;;;7.95;3.47;;;10.70;99.90;;;10.77;73.55;101327.97;5144287;28;20057;-69
2022/05/05 03:14:54;;;;;;;13.38;6.80;;;10.70;99.90;;;10.77;73.46;101325.38;5144274;28;20053;-68
2022/05/05 03:17:26;;;;;;;11.45;7.28;;;10.70;99.90;;;10.78;73.64;101324.53;5144059;28;20486;-70
2022/05/05 03:19:58;;;;;;;9.48;5.15;;;10.70;99.90;;;10.83;73.22;101323.03;5144413;28;20138;-69
2022/05/05 03:22:30;;;;;;;17.02;8.50;;;10.70;99.90;;;10.88;72.97;101326.69;5143826;28;20060;-69
2022/05/05 03:25:04;;;;;;;23.60;10.02;;;10.80;99.90;;;10.92;72.88;101331.22;5144031;28;20492;-70
2022/05/05 03:27:37;;;;;;;13.15;6.53;;;10.80;99.90;;;10.96;72.66;101333.16;5143866;28;20046;-69
2022/05/05 03:30:10;;;;;;;12.13;7.15;;;10.80;99.90;;;10.93;72.28;101325.19;5144344;28;20408;-70
2022/05/05 03:32:42;;;;;;;107.57;39.80;;;10.80;99.90;;;10.94;72.48;101326.06;5143786;28;20051;-70
2022/05/05 03:35:14;;;;;;;32.13;13.77;;;10.80;99.90;;;10.96;72.36;101333.16;5144118;28;20077;-70
2022/05/05 03:37:46;;;;;;;23.67;15.15;;;10.90;99.90;;;10.97;72.49;101334.94;5144173;28;20075;-70
2022/05/05 03:40:20;;;;;;;11.52;6.47;;;10.90;99.90;;;10.99;72.51;101340.19;5144359;28;20047;-69
2022/05/05 03:42:52;;;;;;;11.15;4.72;;;10.90;99.90;;;10.98;72.33;101338.41;5143964;28;20126;-69
2022/05/05 03:45:24;;;;;;;7.07;4.03;;;10.90;99.90;;;11.01;72.23;101334.22;5143893;28;20054;-70
2022/05/05 03:47:56;;;;;;;9.10;4.30;;;10.90;99.90;;;11.03;72.28;101332.56;5143798;28;20053;-68
2022/05/05 03:50:28;;;;;;;10.52;5.00;;;11.00;99.90;;;11.08;72.16;101338.88;5143706;28;20558;-69
2022/05/05 03:53:00;;;;;;;12.48;5.13;;;11.00;99.90;;;11.12;72.08;101342.50;5145183;28;20057;-70
2022/05/05 03:55:33;;;;;;;11.07;5.18;;;11.00;99.90;;;11.14;72.01;101336.50;5143881;28;20088;-69
2022/05/05 03:58:05;;;;;;;10.70;5.15;;;11.10;99.90;;;11.18;71.76;101347.06;5143767;28;20057;-70
2022/05/05 04:00:37;;;;;;;9.25;4.38;;;11.10;99.90;;;11.20;71.60;101346.28;5143777;28;20087;-70
2022/05/05 04:06:00;;;;;;;9.68;4.93;;;11.10;99.90;;;11.23;71.37;101345.56;5148093;28;20081;-69
2022/05/05 04:08:34;;;;;;;12.38;5.22;;;11.10;99.90;;;11.24;71.25;101347.31;5147381;28;20138;-70
2022/05/05 04:11:08;;;;;;;9.18;4.28;;;11.10;99.90;;;11.24;71.13;101347.31;5148067;28;20047;-69
2022/05/05 04:13:40;;;;;;;10.45;4.15;;;11.20;99.90;;;11.26;71.20;101346.53;5147792;28;20411;-69
2022/05/05 04:16:12;;;;;;;11.25;5.15;;;11.20;99.90;;;11.28;71.04;101357.03;5181998;23;20038;-76
2022/05/05 04:18:44;;;;;;;8.00;3.90;;;11.20;99.90;;;11.26;71.21;101356.09;5173056;28;20048;-76
2022/05/05 04:21:16;;;;;;;10.32;4.82;;;11.20;99.90;;;11.19;71.26;101354.97;5166795;28;20046;-76
2022/05/05 04:23:48;;;;;;;11.23;4.30;;;11.10;99.90;;;11.14;71.46;101359.97;5167117;28;20406;-75
2022/05/05 04:26:22;;;;;;;10.57;4.53;;;11.10;99.90;;;11.14;71.66;101365.19;5165989;28;20053;-76
2022/05/05 04:28:57;;;;;;;9.73;4.22;;;11.10;99.90;;;11.12;71.92;101365.97;5167101;28;20052;-76
2022/05/05 04:31:30;;;;;;;10.15;4.95;;;11.10;99.90;;;11.09;72.09;101374.56;5166796;28;20061;-76
2022/05/05 04:34:04;;;;;;;11.18;4.18;;;11.00;99.90;;;11.03;72.54;101363.00;5167021;28;20411;-76
2022/05/05 04:36:37;;;;;;;10.20;4.28;;;10.90;99.90;;;11.02;72.69;101371.63;5166611;28;20046;-75
2022/05/05 04:39:09;;;;;;;12.18;4.25;;;10.90;99.90;;;11.00;72.99;101366.34;5167094;28;20055;-76
2022/05/05 04:41:42;;;;;;;13.80;4.40;;;10.90;99.90;;;10.97;73.41;101375.78;5166853;28;20046;-76
2022/05/05 04:44:14;;;;;;;9.25;4.00;;;10.90;99.90;;;10.94;73.43;101373.03;5166888;28;20054;-76
2022/05/05 04:46:46;;;;;;;9.35;4.22;;;10.90;99.90;;;10.91;73.45;101375.50;5166683;28;20053;-76
2022/05/05 04:49:18;;;;;;;8.60;3.85;;;10.80;99.90;;;10.88;73.45;101379.75;5166691;28;20050;-76
2022/05/05 04:51:50;;;;;;;10.57;4.43;;;10.80;99.90;;;10.89;73.46;101375.47;5166427;28;20138;-76
2022/05/05 04:54:22;;;;;;;8.38;3.92;;;10.80;99.90;;;10.91;73.38;101365.97;5166940;28;20061;-76
2022/05/05 04:56:56;;;;;;;10.77;3.90;;;10.80;99.90;;;10.94;73.41;101373.91;5166663;28;20053;-76
2022/05/05 04:59:29;;;;;;;11.40;4.82;;;10.90;99.90;;;10.95;73.79;101377.41;5166920;28;20064;-76
2022/05/05 05:02:02;;;;;;;9.07;3.95;;;10.90;99.90;;;10.96;74.20;101382.72;5166559;28;20046;-76
2022/05/05 05:04:34;;;;;;;11.95;5.05;;;10.90;99.90;;;10.99;74.61;101382.81;5166653;28;20120;-76
2022/05/05 05:07:06;;;;;;;8.05;4.00;;;10.90;99.90;;;11.00;74.51;101392.44;5166585;28;20534;-76
2022/05/05 05:09:39;;;;;;;8.68;3.75;;;10.90;99.90;;;11.01;74.71;101396.81;5166762;28;20050;-76
2022/05/05 05:12:12;;;;;;;9.32;3.55;;;10.90;99.90;;;11.04;74.58;101406.50;5165866;28;20050;-76
2022/05/05 05:14:44;;;;;;;10.38;4.10;;;10.90;99.90;;;11.02;74.63;101416.88;5165558;28;20129;-76
2022/05/05 05:17:17;;;;;;;10.85;3.85;;;11.00;99.90;;;11.04;74.51;101409.13;5166082;28;20278;-76
2022/05/05 05:19:49;;;;;;;10.40;4.18;;;11.00;99.90;;;11.07;74.33;101414.47;5166529;28;20427;-76
2022/05/05 05:22:22;;;;;;;10.35;4.00;;;11.00;99.90;;;11.07;74.61;101412.72;5165773;28;20046;-76
2022/05/05 05:24:54;;;;;;;12.75;4.18;;;11.00;99.90;;;11.17;74.21;101415.75;5166387;28;20430;-76
2022/05/05 05:27:27;;;;;;;11.07;4.57;;;11.10;99.90;;;11.24;74.12;101420.41;5166478;28;20507;-76
2022/05/05 05:29:59;;;;;;;12.82;4.75;;;11.10;99.90;;;11.25;73.82;101415.25;5166247;28;20050;-76
2022/05/05 05:32:31;;;;;;;11.30;4.45;;;11.20;99.90;;;11.30;73.59;101418.03;5165776;28;20053;-76
2022/05/05 05:35:03;;;;;;;16.75;5.05;;;11.20;99.90;;;11.30;73.02;101418.03;5165651;28;20046;-76
2022/05/05 05:37:35;;;;;;;9.40;4.28;;;11.20;99.90;;;11.30;72.98;101420.66;5165906;28;20518;-76
2022/05/05 05:40:09;;;;;;;13.98;5.28;;;11.20;99.90;;;11.36;72.90;101421.81;5166232;28;20487;-76
2022/05/05 05:42:42;;;;;;;10.10;4.47;;;11.20;99.90;;;11.43;72.85;101428.16;5166452;28;20479;-72
2022/05/05 05:45:14;;;;;;;10.20;4.35;;;11.30;99.90;;;11.50;72.61;101424.97;5166630;28;20060;-71
2022/05/05 05:47:46;;;;;;;10.35;5.18;;;11.40;99.90;;;11.59;72.45;101425.34;5166291;28;20046;-72
2022/05/05 05:50:18;;;;;;;13.63;5.10;;;11.40;99.90;;;11.71;72.14;101429.28;5167037;28;20061;-71
2022/05/05 05:52:50;;;;;;;13.38;4.65;;;11.50;99.90;;;11.79;72.02;101427.88;5166195;28;20046;-69
2022/05/05 05:55:22;;;;;;;11.65;4.45;;;11.60;99.90;;;11.83;71.72;101440.25;5166206;28;20521;-70
2022/05/05 05:57:56;;;;;;;11.15;5.15;;;11.70;99.90;;;11.87;71.70;101436.94;5166347;28;20050;-67
2022/05/05 06:00:28;;;;;;;8.82;4.53;;;11.70;99.90;;;11.98;71.72;101438.25;5166074;28;20349;-67
2022/05/05 06:05:50;;;;;;;12.20;5.10;;;11.90;99.90;;;12.16;71.05;101452.03;5166325;28;20129;-68
2022/05/05 06:08:22;;;;;;;13.30;5.05;;;12.00;99.90;;;12.26;71.24;101452.38;5166354;28;20061;-67
2022/05/05 06:10:54;;;;;;;16.27;5.93;;;12.10;99.90;;;12.41;70.57;101452.97;5165105;28;20050;-67
2022/05/05 06:13:27;;;;;;;13.40;5.03;;;12.20;99.90;;;12.61;70.09;101452.00;5164310;28;20056;-68
2022/05/05 06:15:59;;;;;;;14.15;4.93;;;12.40;99.90;;;12.93;69.58;101454.88;5145526;28;20410;-67
2022/05/05 06:18:31;;;;;;;14.88;5.15;;;12.50;99.90;;;13.23;68.14;101469.06;5163963;28;20050;-67
2022/05/05 06:21:03;;;;;;;13.55;5.00;;;12.80;99.90;;;13.43;66.95;101461.91;5145333;28;20043;-67
2022/05/05 06:23:37;;;;;;;11.98;4.93;;;13.00;99.90;;;13.58;65.63;101464.16;5161672;28;20054;-67
2022/05/05 06:26:09;;;;;;;14.95;5.53;;;13.20;99.90;;;13.75;64.90;101468.19;5164939;28;20376;-68
2022/05/05 06:28:43;;;;;;;13.45;5.72;;;13.30;99.90;;;13.94;64.14;101469.69;5165619;28;20047;-68
2022/05/05 06:31:16;;;;;;;14.80;5.82;;;13.50;99.90;;;14.13;63.65;101465.91;5165518;28;20043;-71
2022/05/05 06:33:49;;;;;;;12.05;5.57;;;13.70;99.90;;;14.22;62.63;101466.22;5165662;28;20427;-67
2022/05/05 06:36:21;;;;;;;12.13;5.78;;;13.80;99.60;;;14.28;62.40;101468.09;5163689;28;20057;-67
2022/05/05 06:38:53;;;;;;;13.40;5.75;;;13.90;99.40;;;14.34;62.33;101468.28;5149528;28;20054;-67
2022/05/05 06:41:26;;;;;;;18.15;6.63;;;14.00;99.10;;;14.37;62.01;101478.88;5164359;28;20052;-67
2022/05/05 06:44:00;;;;;;;13.70;7.45;;;14.00;98.90;;;14.47;61.84;101473.09;5157446;28;20050;-68
2022/05/05 06:46:32;;;;;;;15.63;7.20;;;14.10;98.80;;;14.77;61.89;101475.72;5143937;28;20046;-68
2022/05/05 06:49:05;;;;;;;16.88;7.20;;;14.30;99.00;;;15.08;61.06;101477.47;5143704;28;20047;-67
2022/05/05 06:51:37;;;;;;;17.27;6.80;;;14.50;98.70;;;15.47;59.78;101482.00;5143392;28;20046;-67
2022/05/05 06:54:09;;;;;;;17.63;7.55;;;14.80;98.20;;;15.70;58.69;101478.22;5163809;28;20128;-67
2022/05/05 06:56:41;;;;;;;19.55;7.30;;;15.00;97.60;;;15.77;58.15;101479.28;5164167;28;20050;-67
2022/05/05 06:59:14;;;;;;;18.80;7.20;;;15.20;97.10;;;16.03;57.51;101472.00;5164231;28;20050;-66
2022/05/05 07:01:57;;;;;;;19.50;8.02;;;15.30;96.60;;;16.17;57.06;101481.13;5164034;28;20514;-67
2022/05/05 07:07:21;;;;;;;15.23;6.45;;;15.70;95.40;;;16.64;56.77;101477.75;5163144;28;20054;-67
2022/05/05 07:12:42;;;;;;;17.58;7.63;;;16.30;95.00;;;17.40;54.66;101495.06;5153072;28;20559;-67
2022/05/05 07:15:16;;;;;;;19.73;8.02;;;16.60;94.20;;;17.72;53.39;101492.13;5151242;28;20053;-67
2022/05/05 07:17:48;;;;;;;22.20;7.60;;;16.90;93.20;;;18.04;52.39;101485.59;5143559;28;20432;-67
2022/05/05 07:20:20;;;;;;;15.57;6.90;;;17.20;92.30;;;18.38;51.52;101496.66;5160883;28;20487;-67
2022/05/05 07:22:52;;;;;;;20.95;7.10;;;17.50;91.40;;;18.67;50.63;101494.44;5162937;28;20316;-67
2022/05/05 07:25:25;;;;;;;15.48;7.43;;;17.80;90.60;;;18.70;49.75;101495.34;5163754;28;20054;-68
2022/05/05 07:27:57;;;;;;;17.58;7.45;;;17.90;89.00;;;18.75;49.55;101494.53;5164106;28;20172;-68
2022/05/05 07:30:30;;;;;;;16.95;6.63;;;18.00;87.80;;;18.89;50.27;101491.19;5163876;28;20058;-68
2022/05/05 07:33:04;;;;;;;17.38;8.05;;;18.10;88.40;;;19.15;49.99;101494.13;5163609;28;20125;-68
2022/05/05 07:35:38;;;;;;;20.52;7.80;;;18.30;88.50;;;19.25;48.91;101496.00;5164447;28;20062;-67
2022/05/05 07:38:10;;;;;;;14.48;6.88;;;18.30;86.00;;;19.14;48.69;101494.13;5163669;28;20057;-64
2022/05/05 07:40:42;;;;;;;16.92;7.50;;;18.40;85.00;;;18.98;48.94;101496.59;5163721;28;20060;-64
2022/05/05 07:43:14;;;;;;;16.15;7.65;;;18.30;84.50;;;18.90;49.14;101497.34;5161980;28;20039;-64
2022/05/05 07:45:47;;;;;;;17.65;7.22;;;18.30;84.40;;;18.85;49.73;101510.53;5167424;28;20052;-64
2022/05/05 07:48:20;;;;;;;19.30;7.05;;;18.20;84.60;;;18.93;49.36;101505.34;5164866;28;20070;-62
2022/05/05 07:50:52;;;;;;;18.35;7.78;;;18.20;84.40;;;19.10;49.32;101509.03;5162209;28;20490;-63
2022/05/05 07:53:24;;;;;;;18.52;7.88;;;18.30;84.60;;;19.34;48.30;101503.13;5164563;28;20137;-63
2022/05/05 07:55:56;;;;;;;17.73;7.32;;;18.40;83.50;;;19.60;47.56;101502.53;5162689;28;20048;-62
2022/05/05 07:58:28;;;;;;;21.85;7.32;;;18.60;82.90;;;19.83;47.28;101505.38;5162976;28;20408;-62
2022/05/05 08:01:01;;;;;;;17.35;7.90;;;18.80;82.20;;;20.03;46.82;101503.78;5163730;28;20046;-63
2022/05/05 08:03:33;;;;;;;17.95;7.10;;;18.90;81.50;;;20.23;45.96;101507.44;5162513;28;20047;-62
2022/05/05 08:06:05;;;;;;;17.63;6.95;;;19.10;80.20;;;20.41;45.77;101505.75;5163857;28;20046;-62
2022/05/05 08:08:37;;;;;;;14.60;7.07;;;19.20;79.80;;;20.51;45.09;101505.88;5175860;28;20045;-65
2022/05/05 08:11:10;;;;;;;17.02;8.02;;;19.30;78.30;;;20.66;45.16;101505.03;5183593;28;20072;-64
2022/05/05 08:13:41;;;;;;;16.20;7.40;;;19.50;78.20;;;20.89;44.68;101506.94;5178548;28;20054;-65
2022/05/05 08:16:16;;;;;;;18.77;7.25;;;19.60;77.90;;;21.09;43.75;101516.69;5160749;28;20053;-63
2022/05/05 08:18:48;;;;;;;17.38;7.03;;;19.70;76.60;;;21.33;43.32;101513.28;5177193;28;20054;-63
2022/05/05 08:21:20;;;;;;;19.40;7.82;;;19.80;76.10;;;21.52;42.87;101508.88;5183694;28;20057;-65
2022/05/05 08:28:27;;;;;;;17.00;7.35;;;19.90;75.60;;;22.00;41.94;101522.16;5179887;28;20049;-63
2022/05/05 08:29:34;;;;;;;16.08;6.53;;;20.30;73.80;;;22.60;40.46;101523.81;5163641;28;20050;-63
2022/05/05 08:32:08;;;;;;;16.48;7.28;;;20.50;72.80;;;22.70;40.76;101522.03;5179105;28;20494;-62
2022/05/05 08:34:40;;;;;;;18.52;7.00;;;20.60;72.80;;;22.71;40.46;101519.38;5183914;28;20049;-62
2022/05/05 08:37:12;;;;;;;18.17;8.02;;;20.70;72.30;;;22.55;40.47;101522.06;5168670;28;20129;-63
2022/05/05 08:39:45;;;;;;;15.50;7.60;;;20.70;71.50;;;22.36;39.84;101523.88;5160513;28;20507;-64
2022/05/05 08:42:18;;;;;;;14.25;5.65;;;20.60;69.90;;;22.69;39.80;101523.81;5159786;28;20038;-62
2022/05/05 08:44:50;;;;;;;13.40;5.95;;;20.70;70.30;;;23.42;38.79;101535.88;5163471;28;20050;-61
2022/05/05 08:47:27;;;;;;;17.40;5.47;;;21.00;69.70;;;24.33;37.11;101533.38;5163471;28;20050;-60
2022/05/05 08:50:01;;;;;;;12.93;5.40;;;21.50;68.60;;;25.35;35.51;101539.28;5154072;28;20050;-61
2022/05/05 08:52:41;;;;;;;16.20;6.60;;;22.20;67.20;;;26.51;33.58;101534.69;5162373;28;20081;-63
2022/05/05 08:55:14;;;;;;;16.35;7.60;;;22.90;65.00;;;27.16;31.62;101542.28;5166303;28;20046;-63
2022/05/05 08:57:47;;;;;;;14.38;7.13;;;23.70;61.50;;;26.98;31.28;101541.72;5166005;28;20046;-63
2022/05/05 09:00:20;;;;;;;17.35;7.38;;;23.90;59.40;;;27.34;31.17;101546.34;5166621;28;20109;-65
2022/05/05 09:02:56;;;;;;;15.02;6.70;;;24.20;59.10;;;27.65;30.77;101547.41;5165851;28;20053;-63
2022/05/05 09:05:49;;;;;;;14.23;6.47;;;24.40;58.60;;;28.19;30.30;101538.91;5166250;28;20509;-64
2022/05/05 09:08:29;;;;;;;;;;;24.80;58.00;;;28.68;29.13;101542.94;5166850;28;20050;-65
2022/05/05 09:11:05;;;;;;;12.65;6.60;;;25.10;56.40;;;28.21;29.13;101547.78;5166218;28;19921;-64
2022/05/05 09:13:38;;;;;;;14.82;7.43;;;25.20;55.00;;;27.20;30.46;101541.31;5165221;28;20086;-63
2022/05/05 09:16:11;;;;;;;16.45;6.95;;;24.80;55.40;;;26.38;31.47;101543.81;5166071;28;20060;-64
2022/05/05 09:18:46;;;;;;;15.27;6.80;;;24.40;55.90;;;25.93;32.00;101538.38;5165884;28;20097;-64
2022/05/05 09:21:32;;;;;;;15.63;6.35;;;24.00;56.00;;;25.77;31.92;101543.13;5165883;28;20061;-64
2022/05/05 09:27:00;;;;;;;16.67;6.35;;;23.90;55.40;;;25.42;32.22;101548.94;5165451;28;20054;-74
2022/05/05 09:29:32;;;;;;;18.10;7.32;;;23.80;55.60;;;24.95;32.18;101538.91;5166155;28;20407;-68
2022/05/05 09:32:11;;;;;;;15.75;7.20;;;23.70;55.10;;;24.51;32.76;101541.19;5165323;28;20082;-70
2022/05/05 09:34:45;;;;;;;14.63;6.68;;;23.50;54.70;;;24.25;33.45;101529.88;5161744;28;20051;-70
2022/05/05 09:37:20;;;;;;;16.27;6.35;;;23.40;55.50;;;24.07;34.83;101538.97;5162285;28;20057;-67
2022/05/05 09:39:57;;;;;;;15.25;6.63;;;23.20;56.90;;;24.00;35.24;101535.47;5165674;28;20121;-68
2022/05/05 09:42:41;;;;;;;14.18;6.60;;;23.00;57.30;;;23.90;34.99;101539.09;5165704;28;20133;-68
2022/05/05 09:45:26;;;;;;;17.23;6.45;;;22.90;57.20;;;23.80;36.01;101542.75;5165656;28;20047;-68
2022/05/05 09:47:59;;;;;;;13.43;6.20;;;22.80;58.00;;;23.80;35.93;101535.66;5165717;28;20061;-68
2022/05/05 09:50:34;;;;;;;16.67;6.60;;;22.80;58.10;;;23.94;35.75;101538.19;5166169;28;20051;-68
2022/05/05 09:58:52;;;;;;;18.73;7.05;;;23.00;57.00;;;24.07;34.97;101547.84;5165209;28;20042;-69
2022/05/05 10:01:31;;;;;;;17.55;6.80;;;22.90;57.30;;;23.99;33.78;101544.34;5175426;28;20081;-68
2022/05/05 10:04:04;;;;;;;15.75;6.80;;;22.90;56.10;;;23.73;34.57;101541.00;5170707;28;20077;-69
2022/05/05 10:06:41;;;;;;;18.92;6.32;;;22.70;56.40;;;23.61;35.07;101541.09;5165381;28;20491;-68
2022/05/05 10:09:16;;;;;;;16.13;6.97;;;22.60;57.00;;;23.66;35.08;101542.81;5162116;28;20097;-69
2022/05/05 10:11:48;;;;;;;15.85;7.18;;;22.50;57.20;;;23.83;34.70;101540.06;5164596;28;20070;-69
2022/05/05 10:14:22;;;;;;;18.85;7.93;;;22.60;56.90;;;24.02;34.95;101539.00;5164905;28;20053;-69
2022/05/05 10:16:55;;;;;;;18.92;8.93;;;22.80;57.20;;;24.16;34.37;101530.88;5261139;23;20056;-70
2022/05/05 10:19:27;;;;;;;16.45;6.72;;;22.90;56.80;;;24.21;33.95;101529.06;5158536;28;20060;-70
2022/05/05 10:22:08;;;;;;;20.35;7.10;;;23.00;56.10;;;24.30;33.98;101533.41;5185029;28;20048;-71
2022/05/05 10:24:47;;;;;;;13.60;6.32;;;23.10;56.10;;;24.30;34.17;101536.06;5163277;28;20418;-70
2022/05/05 10:27:19;;;;;;;19.60;8.15;;;23.10;56.20;;;24.30;33.58;101536.94;5173196;28;20046;-70
2022/05/05 10:29:52;;;;;;;17.42;7.25;;;23.20;55.50;;;24.42;33.52;101543.97;5173680;28;20046;-71
2022/05/05 10:32:28;;;;;;;16.05;7.40;;;23.30;55.80;;;24.34;33.23;101536.06;5161721;28;20208;-70
2022/05/05 10:35:10;;;;;;;15.77;7.10;;;23.30;54.70;;;24.29;33.60;101528.97;5166346;28;20466;-70
2022/05/05 10:37:43;;;;;;;16.55;8.25;;;23.30;55.40;;;24.05;34.77;101528.31;5164547;28;20057;-70
2022/05/05 10:40:16;;;;;;;19.45;8.35;;;23.10;56.20;;;23.74;35.24;101529.50;5163585;28;20050;-71
2022/05/05 10:42:52;;;;;;;19.23;8.60;;;22.90;56.80;;;23.44;36.10;101530.53;5177886;28;20128;-72
2022/05/05 10:45:32;;;;;;;19.00;7.30;;;22.60;57.50;;;23.23;36.50;101526.25;5184335;28;20132;-71
2022/05/05 10:48:12;;;;;;;15.77;8.10;;;22.40;57.80;;;22.98;36.48;101529.03;5184495;28;20057;-72
2022/05/05 10:50:56;;;;;;;15.90;7.40;;;22.20;57.80;;;22.72;37.41;101526.44;5184673;28;20077;-72
2022/05/05 10:53:34;;;;;;;14.63;6.65;;;22.00;58.70;;;22.71;38.15;101529.13;5183688;28;20053;-71
2022/05/05 10:56:26;;;;;;;22.13;8.45;;;21.90;59.70;;;22.62;37.18;101530.00;5163860;28;20049;-71
2022/05/05 10:59:02;;;;;;;15.18;7.57;;;21.80;59.00;;;22.45;37.89;101530.09;5163325;28;20080;-71
2022/05/05 11:02:04;;;;;;;14.85;8.10;;;21.70;59.30;;;22.56;38.22;101526.50;5164542;28;20054;-71
2022/05/05 11:04:36;;;;;;;16.52;8.40;;;21.70;60.00;;;22.67;37.65;101524.69;5163852;28;20050;-71
2022/05/05 11:07:37;;;;;;;18.33;8.15;;;21.70;59.30;;;22.71;37.36;101523.81;5158099;28;20050;-71
2022/05/05 11:10:46;;;;;;;19.75;8.05;;;21.80;59.10;;;22.91;37.57;101527.28;5163853;28;20057;-72
2022/05/05 11:13:34;;;;;;;17.80;8.63;;;21.90;59.50;;;23.18;36.84;101528.03;5159310;28;20142;-72
2022/05/05 11:22:23;;;;;;;18.42;7.93;;;22.30;57.20;;;23.36;35.92;101527.94;5184272;28;20414;-68